createdAt,value
2022-12-14T00:00:01.628Z,-1.26
2022-12-14T00:01:01.637Z,-1.23
2022-12-14T00:02:01.656Z,-1.17
2022-12-14T00:03:01.667Z,-1.12
2022-12-14T00:04:01.552Z,-1.15
2022-12-14T00:05:01.540Z,-1.20
2022-12-14T00:06:01.522Z,-1.19
2022-12-14T00:07:01.524Z,-1.17
2022-12-14T00:08:01.501Z,-1.12
2022-12-14T00:09:01.483Z,-1.07
2022-12-14T00:10:01.473Z,-1.05
2022-12-14T00:11:01.460Z,-1.02
2022-12-14T00:12:01.465Z,-1.08
2022-12-14T00:13:01.435Z,-1.08
2022-12-14T00:14:01.430Z,-1.11
2022-12-14T00:15:01.410Z,-1.14
2022-12-14T00:16:01.455Z,-1.09
2022-12-14T00:17:01.402Z,-1.19
2022-12-14T00:18:01.387Z,-1.17
2022-12-14T00:19:01.366Z,-1.14
2022-12-14T00:20:01.376Z,-1.08
2022-12-14T00:21:01.338Z,-1.07
2022-12-14T00:22:01.335Z,-1.05
2022-12-14T00:23:01.307Z,-1.05
2022-12-14T00:24:01.305Z,-1.05
2022-12-14T00:25:01.286Z,-1.09
2022-12-14T00:26:01.273Z,-1.07
2022-12-14T00:27:01.275Z,-1.08
2022-12-14T00:28:01.256Z,-1.04
2022-12-14T00:29:01.241Z,-1.05
2022-12-14T00:30:01.223Z,-1.08
2022-12-14T00:31:01.313Z,-1.08
2022-12-14T00:32:01.246Z,-1.15
2022-12-14T00:33:01.188Z,-1.22
2022-12-14T00:34:01.438Z,-1.23
2022-12-14T00:35:01.156Z,-1.22
2022-12-14T00:36:01.143Z,-1.23
2022-12-14T00:37:01.147Z,-1.20
2022-12-14T00:38:01.163Z,-1.15
2022-12-14T00:39:01.103Z,-1.22
2022-12-14T00:40:01.098Z,-1.20
2022-12-14T00:41:01.078Z,-1.25
2022-12-14T00:42:01.082Z,-1.23
2022-12-14T00:43:01.056Z,-1.23
2022-12-14T00:44:01.043Z,-1.20
2022-12-14T00:45:01.031Z,-1.19
2022-12-14T00:46:01.119Z,-1.12
2022-12-14T00:47:01.016Z,-1.17
2022-12-14T00:48:01.012Z,-1.27
2022-12-14T00:49:00.987Z,-1.22
2022-12-14T00:50:00.965Z,-1.19
2022-12-14T00:51:00.962Z,-1.22
2022-12-14T00:52:00.959Z,-1.23
2022-12-14T00:53:00.930Z,-1.26
2022-12-14T00:54:00.917Z,-1.30
2022-12-14T00:55:00.906Z,-1.27
2022-12-14T00:56:00.891Z,-1.23
2022-12-14T00:57:00.894Z,-1.15
2022-12-14T00:58:00.869Z,-1.14
2022-12-14T00:59:00.858Z,-1.09
2022-12-14T01:00:00.845Z,-1.12
2022-12-14T01:01:00.833Z,-1.19
2022-12-14T01:02:00.977Z,-1.19
2022-12-14T01:03:00.809Z,-1.14
2022-12-14T01:04:00.851Z,-1.15
2022-12-14T01:05:00.788Z,-1.14
2022-12-14T01:06:00.772Z,-1.11
2022-12-14T01:07:00.788Z,-1.07
2022-12-14T01:08:00.746Z,-1.04
2022-12-14T01:09:00.731Z,-1.04
2022-12-14T01:10:00.734Z,-1.07
2022-12-14T01:11:00.706Z,-1.05
2022-12-14T01:12:00.698Z,-1.02
2022-12-14T01:13:00.699Z,-1.02
2022-12-14T01:14:00.669Z,-0.99
2022-12-14T01:15:00.657Z,-1.01
2022-12-14T01:16:00.674Z,-0.97
2022-12-14T01:17:00.634Z,-0.99
2022-12-14T01:18:00.631Z,-0.97
2022-12-14T01:19:00.602Z,-1.01
2022-12-14T01:20:00.617Z,-1.04
2022-12-14T01:21:00.582Z,-1.01
2022-12-14T01:22:00.566Z,-0.99
2022-12-14T01:23:00.565Z,-0.97
2022-12-14T01:24:00.541Z,-0.96
2022-12-14T01:25:00.530Z,-0.99
2022-12-14T01:26:00.519Z,-1.01
2022-12-14T01:27:00.502Z,-1.01
2022-12-14T01:28:00.531Z,-1.02
2022-12-14T01:29:00.477Z,-1.02
2022-12-14T01:30:00.464Z,-1.02
2022-12-14T01:31:00.487Z,-1.01
2022-12-14T01:32:00.439Z,-1.01
2022-12-14T01:33:00.443Z,-0.97
2022-12-14T01:34:00.416Z,-0.94
2022-12-14T01:35:00.404Z,-0.93
2022-12-14T01:36:00.421Z,-0.93
2022-12-14T01:37:00.378Z,-0.91
2022-12-14T01:38:00.379Z,-0.93
2022-12-14T01:39:00.371Z,-0.99
2022-12-14T01:40:00.342Z,-0.99
2022-12-14T01:41:00.345Z,-1.04
2022-12-14T01:42:00.316Z,-1.04
2022-12-14T01:43:00.317Z,-1.08
2022-12-14T01:44:00.293Z,-1.04
2022-12-14T01:45:00.281Z,-1.04
2022-12-14T01:46:00.271Z,-1.01
2022-12-14T01:47:00.255Z,-1.07
2022-12-14T01:48:00.255Z,-1.07
2022-12-14T01:49:00.228Z,-1.07
2022-12-14T01:50:00.217Z,-1.07
2022-12-14T01:51:00.206Z,-1.04
2022-12-14T01:52:00.219Z,-1.07
2022-12-14T01:53:00.219Z,-1.09
2022-12-14T01:54:00.168Z,-1.05
2022-12-14T01:55:00.171Z,-0.99
2022-12-14T01:56:00.140Z,-1.04
2022-12-14T01:57:00.129Z,-1.05
2022-12-14T01:58:00.142Z,-1.07
2022-12-14T01:59:00.103Z,-1.07
2022-12-14T02:00:05.344Z,-1.05
2022-12-14T02:01:00.100Z,-1.08
2022-12-14T02:02:00.226Z,-1.08
2022-12-14T02:03:00.240Z,-1.04
2022-12-14T02:04:00.043Z,-1.09
2022-12-14T02:05:00.026Z,-1.09
2022-12-14T02:06:00.020Z,-1.09
2022-12-14T02:07:01.400Z,-1.04
2022-12-14T02:08:00.027Z,-1.07
2022-12-14T02:08:59.981Z,-1.05
2022-12-14T02:09:59.965Z,-1.04
2022-12-14T02:10:59.955Z,-0.97
2022-12-14T02:11:59.941Z,-0.96
2022-12-14T02:12:59.954Z,-1.01
2022-12-14T02:13:59.920Z,-1.01
2022-12-14T02:14:59.902Z,-1.05
2022-12-14T02:15:59.959Z,-1.01
2022-12-14T02:16:59.878Z,-1.01
2022-12-14T02:17:59.878Z,-0.97
2022-12-14T02:18:59.854Z,-1.02
2022-12-14T02:19:59.842Z,-1.04
2022-12-14T02:20:59.826Z,-1.09
2022-12-14T02:21:59.816Z,-1.12
2022-12-14T02:22:59.835Z,-1.11
2022-12-14T02:23:59.811Z,-1.12
2022-12-14T02:24:59.776Z,-1.14
2022-12-14T02:25:59.763Z,-1.11
2022-12-14T02:26:59.750Z,-1.08
2022-12-14T02:30:37.329Z,-1.12
2022-12-14T02:31:22.399Z,-1.08
2022-12-14T02:32:22.350Z,-1.08
2022-12-14T02:33:22.356Z,-1.08
2022-12-14T02:34:22.322Z,-1.05
2022-12-14T02:35:22.311Z,-1.04
2022-12-14T02:36:22.303Z,-1.04
2022-12-14T02:37:22.286Z,-1.04
2022-12-14T02:38:22.290Z,-1.04
2022-12-14T02:39:22.277Z,-1.04
2022-12-14T02:40:22.259Z,-1.07
2022-12-14T02:41:22.238Z,-1.07
2022-12-14T02:42:22.225Z,-1.09
2022-12-14T02:43:22.226Z,-1.12
2022-12-14T02:44:22.195Z,-1.12
2022-12-14T02:45:22.188Z,-1.20
2022-12-14T02:46:22.299Z,-1.15
2022-12-14T02:47:22.156Z,-1.17
2022-12-14T02:48:22.157Z,-1.19
2022-12-14T02:49:22.134Z,-1.20
2022-12-14T02:50:22.129Z,-1.19
2022-12-14T02:51:22.131Z,-1.19
2022-12-14T02:52:22.119Z,-1.20
2022-12-14T02:53:22.094Z,-1.19
2022-12-14T02:54:22.066Z,-1.20
2022-12-14T02:55:22.076Z,-1.19
2022-12-14T02:56:22.044Z,-1.22
2022-12-14T02:57:22.026Z,-1.22
2022-12-14T02:58:22.048Z,-1.20
2022-12-14T02:59:22.002Z,-1.22
2022-12-14T03:00:21.991Z,-1.22
2022-12-14T03:01:22.198Z,-1.20
2022-12-14T03:02:22.059Z,-1.15
2022-12-14T03:03:21.955Z,-1.14
2022-12-14T03:04:21.951Z,-1.17
2022-12-14T03:05:21.927Z,-1.19
2022-12-14T03:06:21.914Z,-1.23
2022-12-14T03:07:21.899Z,-1.27
2022-12-14T03:08:21.883Z,-1.23
2022-12-14T03:09:21.891Z,-1.22
2022-12-14T03:10:21.866Z,-1.20
2022-12-14T03:11:21.866Z,-1.23
2022-12-14T03:12:21.837Z,-1.23
2022-12-14T03:13:21.829Z,-1.25
2022-12-14T03:14:21.826Z,-1.27
2022-12-14T03:15:21.798Z,-1.23
2022-12-14T03:16:21.802Z,-1.20
2022-12-14T03:17:21.779Z,-1.22
2022-12-14T03:18:21.754Z,-1.23
2022-12-14T03:19:21.765Z,-1.23
2022-12-14T03:20:21.729Z,-1.23
2022-12-14T03:21:21.723Z,-1.22
2022-12-14T03:22:21.704Z,-1.17
2022-12-14T03:23:21.695Z,-1.17
2022-12-14T03:24:21.696Z,-1.15
2022-12-14T03:25:21.676Z,-1.17
2022-12-14T03:26:21.658Z,-1.19
2022-12-14T03:27:21.680Z,-1.19
2022-12-14T03:28:21.632Z,-1.22
2022-12-14T03:29:21.632Z,-1.20
2022-12-14T03:30:44.333Z,-1.22
2022-12-14T03:31:22.662Z,-1.22
2022-12-14T03:32:21.585Z,-1.22
2022-12-14T03:33:21.566Z,-1.11
2022-12-14T03:34:21.571Z,-1.08
2022-12-14T03:35:21.543Z,-1.08
2022-12-14T03:36:21.523Z,-1.07
2022-12-14T03:37:21.515Z,-1.12
2022-12-14T03:38:21.499Z,-1.19
2022-12-14T03:39:21.517Z,-1.12
2022-12-14T03:40:21.472Z,-1.09
2022-12-14T03:41:21.466Z,-1.09
2022-12-14T03:42:21.453Z,-1.17
2022-12-14T03:43:21.455Z,-1.19
2022-12-14T03:44:21.448Z,-1.25
2022-12-14T03:45:21.412Z,-1.25
2022-12-14T03:46:21.399Z,-1.27
2022-12-14T03:47:21.394Z,-1.26
2022-12-14T03:48:21.374Z,-1.25
2022-12-14T03:49:21.394Z,-1.26
2022-12-14T03:50:21.343Z,-1.26
2022-12-14T03:51:21.334Z,-1.23
2022-12-14T03:52:21.330Z,-1.26
2022-12-14T03:53:21.307Z,-1.23
2022-12-14T03:54:21.349Z,-1.22
2022-12-14T03:55:21.292Z,-1.20
2022-12-14T03:56:21.270Z,-1.15
2022-12-14T03:57:21.258Z,-1.23
2022-12-14T03:58:21.244Z,-1.26
2022-12-14T03:59:21.274Z,-1.32
2022-12-14T04:00:21.218Z,-1.32
2022-12-14T04:01:21.352Z,-1.35
2022-12-14T04:02:21.391Z,-1.38
2022-12-14T04:03:21.272Z,-1.33
2022-12-14T04:04:21.185Z,-1.33
2022-12-14T04:05:21.154Z,-1.32
2022-12-14T04:06:21.140Z,-1.32
2022-12-14T04:07:21.134Z,-1.30
2022-12-14T04:08:21.112Z,-1.27
2022-12-14T04:09:21.120Z,-1.27
2022-12-14T04:10:21.088Z,-1.30
2022-12-14T04:11:21.079Z,-1.23
2022-12-14T04:12:21.064Z,-1.20
2022-12-14T04:13:21.050Z,-1.19
2022-12-14T04:14:21.051Z,-1.25
2022-12-14T04:15:21.059Z,-1.23
2022-12-14T04:16:21.080Z,-1.26
2022-12-14T04:17:21.002Z,-1.27
2022-12-14T04:18:20.987Z,-1.30
2022-12-14T04:19:20.992Z,-1.25
2022-12-14T04:20:20.960Z,-1.19
2022-12-14T04:21:20.947Z,-1.14
2022-12-14T04:22:20.935Z,-1.15
2022-12-14T04:23:20.921Z,-1.25
2022-12-14T04:24:20.920Z,-1.27
2022-12-14T04:25:20.895Z,-1.29
2022-12-14T04:26:20.891Z,-1.30
2022-12-14T04:27:20.874Z,-1.30
2022-12-14T04:28:20.862Z,-1.26
2022-12-14T04:29:20.864Z,-1.25
2022-12-14T04:30:20.831Z,-1.23
2022-12-14T04:31:20.896Z,-1.22
2022-12-14T04:32:20.850Z,-1.19
2022-12-14T04:33:20.796Z,-1.15
2022-12-14T04:34:20.802Z,-1.11
2022-12-14T04:35:20.770Z,-1.07
2022-12-14T04:36:20.758Z,-1.12
2022-12-14T04:37:20.746Z,-1.11
2022-12-14T04:38:20.736Z,-1.12
2022-12-14T04:39:20.734Z,-1.14
2022-12-14T04:40:20.710Z,-1.11
2022-12-14T04:41:20.688Z,-1.05
2022-12-14T04:42:20.679Z,-1.01
2022-12-14T04:43:20.663Z,-1.05
2022-12-14T04:44:20.668Z,-1.08
2022-12-14T04:45:20.639Z,-1.04
2022-12-14T04:46:20.660Z,-1.11
2022-12-14T04:47:20.628Z,-1.11
2022-12-14T04:48:20.609Z,-1.05
2022-12-14T04:49:20.606Z,-1.09
2022-12-14T04:50:20.573Z,-1.02
2022-12-14T04:51:20.579Z,-1.05
2022-12-14T04:52:20.548Z,-1.01
2022-12-14T04:53:20.533Z,-0.94
2022-12-14T04:54:20.564Z,-0.96
2022-12-14T04:55:20.511Z,-0.96
2022-12-14T04:56:20.500Z,-0.96
2022-12-14T04:57:20.483Z,-0.93
2022-12-14T04:58:20.469Z,-0.97
2022-12-14T04:59:20.473Z,-0.93
2022-12-14T05:00:20.466Z,-0.97
2022-12-14T05:01:20.667Z,-0.97
2022-12-14T05:02:21.807Z,-1.08
2022-12-14T05:03:20.429Z,-1.07
2022-12-14T05:04:20.400Z,-1.08
2022-12-14T05:05:20.407Z,-1.08
2022-12-14T05:06:20.371Z,-1.04
2022-12-14T05:07:20.360Z,-1.05
2022-12-14T05:08:20.346Z,-1.02
2022-12-14T05:09:20.336Z,-0.97
2022-12-14T05:10:20.339Z,-1.01
2022-12-14T05:11:51.976Z,-0.91
2022-12-14T05:12:21.295Z,-0.94
2022-12-14T05:13:20.278Z,-0.89
2022-12-14T05:14:20.267Z,-0.89
2022-12-14T05:15:20.266Z,-0.89
2022-12-14T05:16:20.295Z,-0.91
2022-12-14T05:17:20.350Z,-0.90
2022-12-14T05:18:20.217Z,-0.91
2022-12-14T05:19:20.218Z,-0.94
2022-12-14T05:20:20.228Z,-0.90
2022-12-14T05:21:20.176Z,-0.96
2022-12-14T05:22:20.164Z,-0.97
2022-12-14T05:23:20.148Z,-0.99
2022-12-14T05:24:20.141Z,-1.02
2022-12-14T05:25:20.143Z,-0.97
2022-12-14T05:26:20.116Z,-0.93
2022-12-14T05:27:20.093Z,-0.96
2022-12-14T05:28:20.082Z,-0.93
2022-12-14T05:29:20.075Z,-0.96
2022-12-14T05:30:20.072Z,-0.93
2022-12-14T05:31:20.048Z,-0.94
2022-12-14T05:32:20.033Z,-0.94
2022-12-14T05:33:20.018Z,-0.94
2022-12-14T05:34:20.009Z,-0.99
2022-12-14T05:35:20.028Z,-1.04
2022-12-14T05:36:19.990Z,-1.05
2022-12-14T05:37:19.966Z,-1.01
2022-12-14T05:38:19.956Z,-0.99
2022-12-14T05:39:19.939Z,-0.94
2022-12-14T05:40:19.955Z,-0.85
2022-12-14T05:41:19.920Z,-0.83
2022-12-14T05:42:19.906Z,-0.78
2022-12-14T05:43:19.887Z,-0.83
2022-12-14T05:44:19.876Z,-0.86
2022-12-14T05:45:19.882Z,-0.90
2022-12-14T05:46:19.884Z,-0.91
2022-12-14T05:47:19.840Z,-0.85
2022-12-14T05:48:19.834Z,-0.89
2022-12-14T05:49:19.809Z,-0.89
2022-12-14T05:50:19.816Z,-0.93
2022-12-14T05:51:19.813Z,-0.91
2022-12-14T05:52:19.780Z,-0.94
2022-12-14T05:53:19.764Z,-0.91
2022-12-14T05:54:19.746Z,-0.99
2022-12-14T05:55:19.755Z,-0.96
2022-12-14T05:56:19.721Z,-0.94
2022-12-14T05:57:19.708Z,-0.94
2022-12-14T05:58:19.701Z,-0.96
2022-12-14T05:59:19.680Z,-0.91
2022-12-14T06:00:19.675Z,-0.96
2022-12-14T06:01:20.198Z,-0.97
2022-12-14T06:02:19.823Z,-1.01
2022-12-14T06:03:19.635Z,-0.97
2022-12-14T06:04:19.741Z,-1.02
2022-12-14T06:05:19.614Z,-1.04
2022-12-14T06:06:19.612Z,-1.08
2022-12-14T06:07:23.116Z,-1.09
2022-12-14T06:08:20.568Z,-1.09
2022-12-14T06:09:19.556Z,-1.09
2022-12-14T06:10:19.544Z,-1.11
2022-12-14T06:11:19.548Z,-1.12
2022-12-14T06:12:19.527Z,-1.09
2022-12-14T06:13:19.502Z,-1.11
2022-12-14T06:14:19.492Z,-1.02
2022-12-14T06:15:19.481Z,-1.02
2022-12-14T06:16:19.619Z,-1.02
2022-12-14T06:17:19.454Z,-1.01
2022-12-14T06:18:19.440Z,-1.08
2022-12-14T06:19:19.431Z,-1.08
2022-12-14T06:20:19.411Z,-1.04
2022-12-14T06:21:19.420Z,-1.04
2022-12-14T06:22:19.389Z,-1.08
2022-12-14T06:23:19.402Z,-1.08
2022-12-14T06:24:19.363Z,-1.11
2022-12-14T06:25:19.350Z,-1.12
2022-12-14T06:26:19.354Z,-1.09
2022-12-14T06:27:19.326Z,-1.05
2022-12-14T06:28:19.318Z,-0.94
2022-12-14T06:29:19.298Z,-0.93
2022-12-14T06:30:19.291Z,-0.91
2022-12-14T06:31:19.485Z,-0.86
2022-12-14T06:32:19.263Z,-0.86
2022-12-14T06:33:19.245Z,-0.85
2022-12-14T06:34:22.235Z,-0.83
2022-12-14T06:35:19.220Z,-0.90
2022-12-14T06:36:19.252Z,-0.91
2022-12-14T06:37:19.195Z,-0.90
2022-12-14T06:38:19.185Z,-0.90
2022-12-14T06:39:19.195Z,-0.91
2022-12-14T06:40:19.159Z,-0.97
2022-12-14T06:41:19.161Z,-0.97
2022-12-14T06:42:19.131Z,-0.94
2022-12-14T06:43:19.116Z,-0.96
2022-12-14T06:44:19.113Z,-0.97
2022-12-14T06:45:19.091Z,-0.97
2022-12-14T06:46:19.178Z,-0.94
2022-12-14T06:47:19.090Z,-0.99
2022-12-14T06:48:19.058Z,-0.96
2022-12-14T06:49:19.044Z,-1.02
2022-12-14T06:50:19.035Z,-1.02
2022-12-14T06:51:19.032Z,-1.05
2022-12-14T06:52:24.981Z,-1.04
2022-12-14T06:53:18.992Z,-0.97
2022-12-14T06:54:18.980Z,-1.05
2022-12-14T06:55:18.981Z,-1.07
2022-12-14T06:56:18.969Z,-1.08
2022-12-14T06:57:18.943Z,-1.04
2022-12-14T06:58:18.929Z,-1.11
2022-12-14T06:59:18.917Z,-1.09
2022-12-14T07:00:18.901Z,-1.09
2022-12-14T07:01:19.006Z,-1.05
2022-12-14T07:02:19.209Z,-0.99
2022-12-14T07:03:19.013Z,-0.94
2022-12-14T07:04:18.872Z,-1.01
2022-12-14T07:05:18.840Z,-1.02
2022-12-14T07:06:18.858Z,-1.05
2022-12-14T07:07:18.821Z,-1.02
2022-12-14T07:08:18.801Z,-1.02
2022-12-14T07:09:18.782Z,-1.01
2022-12-14T07:10:18.773Z,-1.04
2022-12-14T07:11:18.789Z,-1.01
2022-12-14T07:12:18.764Z,-0.97
2022-12-14T07:13:18.736Z,-0.97
2022-12-14T07:14:18.741Z,-1.02
2022-12-14T07:15:18.715Z,-1.01
2022-12-14T07:16:18.778Z,-0.90
2022-12-14T07:17:18.695Z,-0.93
2022-12-14T07:18:18.672Z,-0.93
2022-12-14T07:19:18.678Z,-0.93
2022-12-14T07:20:18.654Z,-0.99
2022-12-14T07:21:18.631Z,-0.94
2022-12-14T07:22:18.647Z,-0.93
2022-12-14T07:23:20.321Z,-0.90
2022-12-14T07:24:18.598Z,-0.85
2022-12-14T07:25:18.586Z,-0.80
2022-12-14T07:26:18.565Z,-0.80
2022-12-14T07:27:18.584Z,-0.75
2022-12-14T07:28:18.551Z,-0.71
2022-12-14T07:29:18.532Z,-0.68
2022-12-14T07:30:18.534Z,-0.70
2022-12-14T07:31:18.546Z,-0.68
2022-12-14T07:32:18.501Z,-0.65
2022-12-14T07:33:18.475Z,-0.65
2022-12-14T07:34:18.462Z,-0.67
2022-12-14T07:35:18.451Z,-0.80
2022-12-14T07:36:18.452Z,-0.90
2022-12-14T07:37:18.437Z,-0.91
2022-12-14T07:38:18.412Z,-0.89
2022-12-14T07:39:18.409Z,-0.80
2022-12-14T07:40:18.389Z,-0.77
2022-12-14T07:41:22.424Z,-0.77
2022-12-14T07:42:18.399Z,-0.68
2022-12-14T07:43:18.384Z,-0.64
2022-12-14T07:44:18.337Z,-0.72
2022-12-14T07:45:18.320Z,-0.78
2022-12-14T07:46:18.391Z,-0.94
2022-12-14T07:47:18.362Z,-0.91
2022-12-14T07:48:18.299Z,-0.85
2022-12-14T07:49:18.327Z,-0.75
2022-12-14T07:50:18.272Z,-0.72
2022-12-14T07:51:18.256Z,-0.65
2022-12-14T07:52:18.257Z,-0.62
2022-12-14T07:53:18.226Z,-0.65
2022-12-14T07:54:18.213Z,-0.64
2022-12-14T07:55:18.223Z,-0.68
2022-12-14T07:56:18.189Z,-0.65
2022-12-14T07:57:18.187Z,-0.70
2022-12-14T07:58:18.158Z,-0.68
2022-12-14T07:59:18.173Z,-0.67
2022-12-14T08:00:18.140Z,-0.57
2022-12-14T08:01:18.262Z,-0.56
2022-12-14T08:02:18.254Z,-0.62
2022-12-14T08:03:18.094Z,-0.64
2022-12-14T08:04:18.185Z,-0.57
2022-12-14T08:05:18.066Z,-0.57
2022-12-14T08:06:18.056Z,-0.50
2022-12-14T08:07:18.062Z,-0.56
2022-12-14T08:08:18.034Z,-0.54
2022-12-14T08:09:18.026Z,-0.52
2022-12-14T08:10:18.010Z,-0.47
2022-12-14T08:11:17.990Z,-0.44
2022-12-14T08:12:17.998Z,-0.49
2022-12-14T08:13:17.975Z,-0.52
2022-12-14T08:14:17.969Z,-0.56
2022-12-14T08:15:17.971Z,-0.57
2022-12-14T08:16:17.954Z,-0.57
2022-12-14T08:17:17.943Z,-0.68
2022-12-14T08:18:17.905Z,-0.72
2022-12-14T08:19:17.898Z,-0.74
2022-12-14T08:20:17.881Z,-0.64
2022-12-14T08:21:17.865Z,-0.57
2022-12-14T08:22:17.873Z,-0.49
2022-12-14T08:23:17.843Z,-0.41
2022-12-14T08:24:17.859Z,-0.39
2022-12-14T08:25:17.813Z,-0.34
2022-12-14T08:26:17.810Z,-0.39
2022-12-14T08:27:17.807Z,-0.47
2022-12-14T08:28:17.783Z,-0.56
2022-12-14T08:29:17.777Z,-0.53
2022-12-14T08:30:17.752Z,-0.67
2022-12-14T08:31:17.810Z,-0.78
2022-12-14T08:32:17.748Z,-0.80
2022-12-14T08:33:17.717Z,-0.85
2022-12-14T08:34:17.703Z,-0.85
2022-12-14T08:35:17.691Z,-0.90
2022-12-14T08:36:17.681Z,-0.86
2022-12-14T08:37:17.684Z,-0.85
2022-12-14T08:38:17.654Z,-0.86
2022-12-14T08:39:17.654Z,-0.82
2022-12-14T08:40:17.629Z,-0.74
2022-12-14T08:41:17.620Z,-0.74
2022-12-14T08:42:17.631Z,-0.65
2022-12-14T08:43:21.728Z,-0.67
2022-12-14T08:44:17.582Z,-0.68
2022-12-14T08:45:17.567Z,-0.83
2022-12-14T08:46:17.648Z,-0.89
2022-12-14T08:47:17.559Z,-0.94
2022-12-14T08:48:17.738Z,-0.96
2022-12-14T08:49:17.509Z,-0.91
2022-12-14T08:50:17.501Z,-0.85
2022-12-14T08:51:17.486Z,-0.83
2022-12-14T08:52:17.479Z,-0.82
2022-12-14T08:53:17.476Z,-0.80
2022-12-14T08:54:17.446Z,-0.90
2022-12-14T08:55:18.194Z,-0.93
2022-12-14T08:56:17.420Z,-0.96
2022-12-14T08:57:17.419Z,-1.01
2022-12-14T08:58:17.408Z,-1.04
2022-12-14T08:59:36.981Z,-1.08
2022-12-14T09:00:17.371Z,-1.08
2022-12-14T09:01:17.518Z,-0.97
2022-12-14T09:02:17.516Z,-0.86
2022-12-14T09:03:17.495Z,-0.80
2022-12-14T09:04:17.322Z,-0.74
2022-12-14T09:05:17.313Z,-0.62
2022-12-14T09:06:17.299Z,-0.50
2022-12-14T09:07:17.284Z,-0.43
2022-12-14T09:08:17.285Z,-0.36
2022-12-14T09:09:17.272Z,-0.29
2022-12-14T09:10:17.248Z,-0.20
2022-12-14T09:11:17.321Z,-0.10
2022-12-14T09:12:17.218Z,0.01
2022-12-14T09:13:17.221Z,0.12
2022-12-14T09:14:17.193Z,0.16
2022-12-14T09:15:17.181Z,0.11
2022-12-14T09:16:17.210Z,0.15
2022-12-14T09:17:17.154Z,-0.06
2022-12-14T09:18:17.155Z,0.00
2022-12-14T09:19:17.135Z,0.01
2022-12-14T09:20:17.119Z,0.07
2022-12-14T09:21:17.110Z,0.00
2022-12-14T09:22:17.141Z,-0.02
2022-12-14T09:23:17.107Z,-0.07
2022-12-14T09:24:17.075Z,-0.13
2022-12-14T09:25:17.051Z,-0.10
2022-12-14T09:26:17.040Z,-0.11
2022-12-14T09:27:17.037Z,-0.39
2022-12-14T09:28:17.034Z,-0.36
2022-12-14T09:29:17.002Z,-0.32
2022-12-14T09:30:19.322Z,-0.34
2022-12-14T09:31:17.098Z,-0.39
2022-12-14T09:32:16.968Z,-0.31
2022-12-14T09:33:16.955Z,-0.25
2022-12-14T09:34:16.961Z,-0.25
2022-12-14T09:35:16.935Z,-0.18
2022-12-14T09:36:16.910Z,-0.10
2022-12-14T09:37:16.909Z,-0.07
2022-12-14T09:38:16.889Z,0.00
2022-12-14T09:39:16.892Z,0.03
2022-12-14T09:40:16.861Z,0.03
2022-12-14T09:41:16.855Z,-0.02
2022-12-14T09:42:16.852Z,0.03
2022-12-14T09:43:16.833Z,0.07
2022-12-14T09:44:18.720Z,0.11
2022-12-14T09:45:16.824Z,0.21
2022-12-14T09:46:16.856Z,0.19
2022-12-14T09:47:16.781Z,0.12
2022-12-14T09:48:16.765Z,0.10
2022-12-14T09:49:16.766Z,0.08
2022-12-14T09:50:16.733Z,0.10
2022-12-14T09:51:16.834Z,0.03
2022-12-14T09:52:16.717Z,0.05
2022-12-14T09:53:16.707Z,0.05
2022-12-14T09:54:16.725Z,0.05
2022-12-14T09:55:16.681Z,0.01
2022-12-14T09:56:16.663Z,0.04
2022-12-14T09:57:16.665Z,0.03
2022-12-14T09:58:16.638Z,0.07
2022-12-14T09:59:16.637Z,0.08
2022-12-14T10:00:16.616Z,0.12
2022-12-14T10:01:16.702Z,0.10
2022-12-14T10:02:33.101Z,0.21
2022-12-14T10:03:17.724Z,0.18
2022-12-14T10:04:16.670Z,0.23
2022-12-14T10:05:16.548Z,0.23
2022-12-14T10:06:16.531Z,0.26
2022-12-14T10:07:16.526Z,0.22
2022-12-14T10:08:16.506Z,0.15
2022-12-14T10:09:16.514Z,0.10
2022-12-14T10:10:16.483Z,0.05
2022-12-14T10:11:16.478Z,0.05
2022-12-14T10:12:16.460Z,0.04
2022-12-14T10:13:16.445Z,0.04
2022-12-14T10:14:16.450Z,0.07
2022-12-14T10:15:16.424Z,0.07
2022-12-14T10:16:16.473Z,0.15
2022-12-14T10:17:16.481Z,0.18
2022-12-14T10:18:49.525Z,0.19
2022-12-14T10:19:17.388Z,0.23
2022-12-14T10:20:16.352Z,0.23
2022-12-14T10:21:16.344Z,0.12
2022-12-14T10:22:16.330Z,0.11
2022-12-14T10:23:22.472Z,0.12
2022-12-14T10:24:16.329Z,0.10
2022-12-14T10:25:16.294Z,0.05
2022-12-14T10:26:16.281Z,0.04
2022-12-14T10:27:16.278Z,0.10
2022-12-14T10:28:16.249Z,-0.03
2022-12-14T10:29:16.258Z,0.00
2022-12-14T10:30:16.229Z,0.03
2022-12-14T10:31:16.328Z,0.01
2022-12-14T10:32:16.208Z,0.07
2022-12-14T10:33:16.192Z,0.11
2022-12-14T10:34:16.200Z,0.15
2022-12-14T10:35:16.165Z,0.18
2022-12-14T10:36:16.152Z,0.23
2022-12-14T10:37:16.137Z,0.18
2022-12-14T10:38:16.132Z,0.19
2022-12-14T10:39:16.137Z,0.23
2022-12-14T10:40:27.468Z,0.18
2022-12-14T10:41:16.087Z,0.22
2022-12-14T10:42:16.073Z,0.26
2022-12-14T10:43:16.062Z,0.15
2022-12-14T10:44:16.049Z,-0.02
2022-12-14T10:45:39.794Z,-0.02
2022-12-14T10:46:17.113Z,0.04
2022-12-14T10:47:16.011Z,0.08
2022-12-14T10:48:16.000Z,0.15
2022-12-14T10:49:15.989Z,0.21
2022-12-14T10:50:16.100Z,0.22
2022-12-14T10:51:15.963Z,0.11
2022-12-14T10:52:15.946Z,-0.26
2022-12-14T10:53:15.935Z,-0.25
2022-12-14T10:54:15.921Z,-0.13
2022-12-14T10:55:15.928Z,-0.10
2022-12-14T10:56:16.025Z,-0.03
2022-12-14T10:57:15.883Z,0.03
2022-12-14T10:58:15.868Z,0.11
2022-12-14T10:59:15.861Z,0.25
2022-12-14T11:00:22.792Z,0.34
2022-12-14T11:01:16.063Z,0.36
2022-12-14T11:02:16.072Z,0.32
2022-12-14T11:03:15.937Z,0.34
2022-12-14T11:04:15.792Z,0.37
2022-12-14T11:05:15.798Z,0.44
2022-12-14T11:06:15.782Z,0.44
2022-12-14T11:07:15.765Z,0.49
2022-12-14T11:08:15.747Z,0.47
2022-12-14T11:09:15.731Z,0.43
2022-12-14T11:10:15.780Z,0.43
2022-12-14T11:11:19.185Z,0.49
2022-12-14T11:12:15.809Z,0.63
2022-12-14T11:13:15.683Z,0.56
2022-12-14T11:14:15.666Z,0.59
2022-12-14T11:15:15.671Z,0.62
2022-12-14T11:16:15.684Z,0.60
2022-12-14T11:17:15.788Z,0.68
2022-12-14T11:18:15.762Z,0.62
2022-12-14T11:19:15.608Z,0.58
2022-12-14T11:20:15.607Z,0.55
2022-12-14T11:21:15.578Z,0.49
2022-12-14T11:22:21.940Z,0.47
2022-12-14T11:23:16.575Z,0.43
2022-12-14T11:24:15.541Z,0.56
2022-12-14T11:25:15.638Z,0.58
2022-12-14T11:26:15.510Z,0.60
2022-12-14T11:27:15.501Z,0.63
2022-12-14T11:28:15.488Z,0.52
2022-12-14T11:29:15.476Z,0.50
2022-12-14T11:30:15.642Z,0.50
2022-12-14T11:31:15.583Z,0.55
2022-12-14T11:32:15.443Z,0.44
2022-12-14T11:33:15.423Z,0.44
2022-12-14T11:34:21.757Z,0.47
2022-12-14T11:35:15.624Z,0.47
2022-12-14T11:36:15.385Z,0.52
2022-12-14T11:37:15.374Z,0.58
2022-12-14T11:38:15.362Z,0.49
2022-12-14T11:39:15.349Z,0.59
2022-12-14T11:40:15.349Z,0.59
2022-12-14T11:41:15.322Z,0.60
2022-12-14T11:42:15.308Z,0.60
2022-12-14T11:43:15.298Z,0.60
2022-12-14T11:44:15.280Z,0.60
2022-12-14T11:45:15.413Z,0.56
2022-12-14T11:46:15.283Z,0.50
2022-12-14T11:47:15.242Z,0.55
2022-12-14T11:48:15.233Z,0.55
2022-12-14T11:49:15.220Z,0.52
2022-12-14T11:50:15.444Z,0.47
2022-12-14T11:51:15.197Z,0.52
2022-12-14T11:52:15.179Z,0.52
2022-12-14T11:53:15.168Z,0.58
2022-12-14T11:54:15.154Z,0.60
2022-12-14T11:55:15.186Z,0.62
2022-12-14T11:56:15.128Z,0.60
2022-12-14T11:57:15.118Z,0.59
2022-12-14T11:58:15.110Z,0.58
2022-12-14T11:59:15.089Z,0.66
2022-12-14T12:00:15.100Z,0.70
2022-12-14T12:01:15.120Z,0.70
2022-12-14T12:02:15.134Z,0.76
2022-12-14T12:03:15.112Z,0.74
2022-12-14T12:04:15.095Z,0.76
2022-12-14T12:05:15.018Z,0.76
2022-12-14T12:06:15.015Z,0.80
2022-12-14T12:07:14.990Z,0.84
2022-12-14T12:08:14.971Z,0.78
2022-12-14T12:09:14.963Z,0.77
2022-12-14T12:10:14.948Z,0.78
2022-12-14T12:11:14.960Z,0.87
2022-12-14T12:12:14.924Z,0.88
2022-12-14T12:13:14.916Z,0.91
2022-12-14T12:14:14.900Z,0.94
2022-12-14T12:15:14.888Z,1.01
2022-12-14T12:16:15.001Z,1.02
2022-12-14T12:17:14.858Z,0.99
2022-12-14T12:18:14.845Z,0.91
2022-12-14T12:19:14.840Z,0.81
2022-12-14T12:20:14.825Z,0.78
2022-12-14T12:21:14.824Z,0.87
2022-12-14T12:22:14.796Z,0.98
2022-12-14T12:23:14.782Z,1.04
2022-12-14T12:24:14.775Z,1.06
2022-12-14T12:25:26.675Z,1.16
2022-12-14T12:26:15.763Z,1.22
2022-12-14T12:27:14.733Z,1.32
2022-12-14T12:28:14.715Z,1.35
2022-12-14T12:29:14.710Z,1.41
2022-12-14T12:30:14.701Z,1.52
2022-12-14T12:31:14.737Z,1.58
2022-12-14T12:32:14.671Z,1.66
2022-12-14T12:33:14.663Z,1.78
2022-12-14T12:34:14.645Z,1.85
2022-12-14T12:35:14.630Z,1.97
2022-12-14T12:36:17.959Z,2.02
2022-12-14T12:37:26.233Z,2.13
2022-12-14T12:38:15.594Z,2.13
2022-12-14T12:39:14.578Z,2.17
2022-12-14T12:40:14.568Z,2.26
2022-12-14T12:41:14.575Z,2.26
2022-12-14T12:42:14.541Z,2.20
2022-12-14T12:43:14.540Z,2.25
2022-12-14T12:44:14.522Z,2.15
2022-12-14T12:45:14.503Z,2.15
2022-12-14T12:46:14.654Z,2.02
2022-12-14T12:47:26.470Z,1.91
2022-12-14T12:48:15.465Z,1.78
2022-12-14T12:49:14.462Z,1.80
2022-12-14T12:50:14.440Z,1.80
2022-12-14T12:51:14.441Z,1.77
2022-12-14T12:52:14.410Z,1.70
2022-12-14T12:53:14.400Z,1.58
2022-12-14T12:54:14.389Z,1.60
2022-12-14T12:55:14.372Z,1.58
2022-12-14T12:56:14.386Z,1.55
2022-12-14T12:57:14.349Z,1.49
2022-12-14T12:58:14.333Z,1.48
2022-12-14T12:59:14.322Z,1.48
2022-12-14T13:00:14.305Z,1.48
2022-12-14T13:01:14.429Z,1.44